Time;durP1;ratioP1;P1;durP2;ratioP2;P2;SDS_P1;SDS_P2;PMS_P1;PMS_P2;Temp;Humidity;BMP_temperature;BMP_pressure;BME280_temperature;BME280_humidity;BME280_pressure;Samples;Min_cycle;Max_cycle;Signal;HPM_P1;HPM_P2
2022/01/11 00:00:21;;;;;;;291.77;41.47;;;1.00;99.90;;;;;;5091882;28;20043;-70
2022/01/11 00:02:48;;;;;;;181.77;35.38;;;1.00;99.90;;;;;;5091941;28;20047;-71
2022/01/11 00:05:37;;;;;;;119.10;32.15;;;0.90;99.90;;;;;;5091845;28;20032;-70
2022/01/11 00:08:03;;;;;;;125.05;30.33;;;0.90;99.90;;;;;;5092119;28;20549;-71
2022/01/11 00:10:46;;;;;;;170.40;34.75;;;1.00;99.90;;;;;;5080371;28;20070;-70
2022/01/11 00:13:12;;;;;;;207.38;35.90;;;1.00;99.90;;;;;;5071492;28;20536;-71
2022/01/11 00:15:38;;;;;;;146.90;32.00;;;1.00;99.90;;;;;;5071447;28;20074;-71
2022/01/11 00:18:03;;;;;;;119.68;31.15;;;1.00;99.90;;;;;;5070944;28;20025;-71
2022/01/11 00:20:29;;;;;;;150.50;33.90;;;1.00;99.90;;;;;;5071542;28;20020;-70
2022/01/11 00:25:29;;;;;;;151.53;32.83;;;1.00;99.90;;;;;;5071692;28;20090;-70
2022/01/11 00:27:55;;;;;;;176.63;34.45;;;1.00;99.90;;;;;;5071316;28;20455;-71
2022/01/11 00:30:21;;;;;;;106.05;29.63;;;1.00;99.90;;;;;;5071384;28;20024;-70
2022/01/11 00:32:51;;;;;;;119.70;30.17;;;1.10;99.90;;;;;;5071379;28;20028;-71
2022/01/11 00:35:22;;;;;;;145.82;30.55;;;1.00;99.90;;;;;;5071338;28;20025;-71
2022/01/11 00:37:48;;;;;;;138.27;31.48;;;1.00;99.90;;;;;;5072698;28;20486;-71
2022/01/11 00:40:14;;;;;;;269.02;38.25;;;0.90;99.90;;;;;;5091160;28;20028;-71
2022/01/11 00:42:39;;;;;;;266.77;36.08;;;0.90;99.90;;;;;;5091601;28;20394;-71
2022/01/11 00:45:09;;;;;;;300.33;39.17;;;0.80;99.90;;;;;;5091245;28;20036;-70
2022/01/11 00:47:35;;;;;;;255.00;35.42;;;0.80;99.90;;;;;;5091317;28;20099;-70
2022/01/11 00:50:01;;;;;;;228.68;35.42;;;0.70;99.90;;;;;;5072815;28;20383;-71
2022/01/11 00:52:28;;;;;;;316.17;37.92;;;0.70;99.90;;;;;;5091325;28;20035;-71
2022/01/11 00:54:55;;;;;;;201.55;34.25;;;0.60;99.90;;;;;;5091104;28;20020;-70
2022/01/11 00:57:21;;;;;;;164.48;33.53;;;0.70;99.90;;;;;;5072856;28;20602;-71
2022/01/11 00:59:47;;;;;;;312.30;39.53;;;0.80;99.90;;;;;;5091348;28;20476;-70
2022/01/11 01:02:12;;;;;;;408.23;43.05;;;0.80;99.90;;;;;;5091075;28;20032;-70
2022/01/11 01:04:38;;;;;;;182.95;34.03;;;0.90;99.90;;;;;;5090982;28;20028;-71
2022/01/11 01:07:07;;;;;;;184.70;33.95;;;0.90;99.90;;;;;;5091468;28;20036;-71
2022/01/11 01:12:33;;;;;;;214.60;34.25;;;0.90;99.90;;;;;;5009182;28;20134;-70
2022/01/11 01:15:00;;;;;;;284.02;38.17;;;0.90;99.90;;;;;;5008912;28;20030;-70
2022/01/11 01:17:26;;;;;;;206.30;33.50;;;1.00;99.90;;;;;;5008975;28;20026;-70
2022/01/11 01:19:52;;;;;;;220.93;34.58;;;1.00;99.90;;;;;;5008911;28;20042;-70
2022/01/11 01:22:18;;;;;;;179.93;35.45;;;1.00;99.90;;;;;;5009112;28;20113;-71
2022/01/11 01:24:44;;;;;;;163.82;32.78;;;1.00;99.90;;;;;;5008803;28;20038;-70
2022/01/11 01:27:09;;;;;;;309.55;38.50;;;1.00;99.90;;;;;;5008963;28;20120;-71
2022/01/11 01:29:35;;;;;;;254.23;36.85;;;1.00;99.90;;;;;;5009443;28;20142;-71
2022/01/11 01:32:01;;;;;;;206.30;34.53;;;0.90;99.90;;;;;;5012750;28;20578;-71
2022/01/11 01:34:27;;;;;;;166.30;32.50;;;1.00;99.90;;;;;;5012324;28;20030;-71
2022/01/11 01:36:53;;;;;;;177.73;32.80;;;1.00;99.90;;;;;;5012344;28;20026;-71
2022/01/11 01:39:19;;;;;;;202.32;34.63;;;1.10;99.90;;;;;;4998512;28;20062;-71
2022/01/11 01:41:46;;;;;;;243.80;36.30;;;1.00;99.90;;;;;;5005699;28;20123;-70
2022/01/11 01:44:13;;;;;;;219.65;35.30;;;1.10;99.90;;;;;;5012120;28;20172;-71
2022/01/11 01:46:39;;;;;;;195.07;34.72;;;1.00;99.90;;;;;;5057053;28;20508;-70
2022/01/11 01:49:05;;;;;;;172.23;35.55;;;1.10;99.90;;;;;;5094199;28;20068;-71
2022/01/11 01:51:31;;;;;;;154.07;33.13;;;1.10;99.90;;;;;;5094413;28;20040;-70
2022/01/11 01:53:57;;;;;;;322.48;41.17;;;1.00;99.90;;;;;;5094363;28;20081;-70
2022/01/11 01:56:23;;;;;;;125.55;31.15;;;1.10;99.90;;;;;;5094490;28;20450;-70
2022/01/11 01:58:50;;;;;;;231.88;35.10;;;1.00;99.90;;;;;;5094237;28;20024;-70
2022/01/11 02:01:16;;;;;;;314.08;40.53;;;1.00;99.90;;;;;;5094427;28;20020;-70
2022/01/11 02:03:44;;;;;;;241.73;37.88;;;0.90;99.90;;;;;;5094016;28;20047;-70
2022/01/11 02:06:16;;;;;;;282.95;37.95;;;0.90;99.90;;;;;;5094117;28;20012;-70
2022/01/11 02:08:47;;;;;;;247.20;37.70;;;0.90;99.90;;;;;;5094156;28;20024;-71
2022/01/11 02:11:17;;;;;;;356.48;44.17;;;0.90;99.90;;;;;;5093682;28;20081;-70
2022/01/11 02:13:45;;;;;;;199.05;34.22;;;1.00;99.90;;;;;;5093771;28;20474;-70
2022/01/11 02:16:12;;;;;;;142.38;32.75;;;1.00;99.90;;;;;;5094184;28;20078;-71
2022/01/11 02:18:40;;;;;;;229.15;36.00;;;0.90;99.90;;;;;;5094002;28;20089;-71
2022/01/11 02:21:06;;;;;;;155.95;33.30;;;0.90;99.90;;;;;;5093897;28;20351;-70
2022/01/11 02:23:32;;;;;;;166.88;33.35;;;1.00;99.90;;;;;;5093928;28;20047;-70
2022/01/11 02:25:59;;;;;;;155.05;31.77;;;1.00;99.90;;;;;;5093953;28;20420;-70
2022/01/11 02:28:26;;;;;;;167.70;33.28;;;0.90;99.90;;;;;;5093723;28;20024;-71
2022/01/11 02:30:53;;;;;;;144.27;32.53;;;0.90;99.90;;;;;;5093873;28;20470;-71
2022/01/11 02:33:33;;;;;;;173.73;33.35;;;0.90;99.90;;;;;;5075291;28;20470;-70
2022/01/11 02:36:01;;;;;;;202.23;37.85;;;0.90;99.90;;;;;;5093723;28;20020;-71
2022/01/11 02:38:27;;;;;;;131.73;31.92;;;0.90;99.90;;;;;;5086691;28;20049;-71
2022/01/11 02:40:52;;;;;;;175.15;34.03;;;0.90;99.90;;;;;;5078967;28;20054;-71
2022/01/11 02:43:18;;;;;;;168.30;34.65;;;0.90;99.90;;;;;;5074855;28;20036;-71
2022/01/11 02:45:44;;;;;;;114.38;29.60;;;0.90;99.90;;;;;;5093508;28;20027;-71
2022/01/11 02:48:09;;;;;;;106.18;31.05;;;1.00;99.90;;;;;;5093435;28;20796;-70
2022/01/11 02:50:35;;;;;;;146.15;33.17;;;0.90;99.90;;;;;;5093223;28;20146;-71
2022/01/11 02:53:01;;;;;;;141.15;33.08;;;0.90;99.90;;;;;;5093512;28;20330;-70
2022/01/11 02:55:26;;;;;;;124.28;31.60;;;1.00;99.90;;;;;;5093107;28;20027;-71
2022/01/11 02:57:53;;;;;;;135.70;32.78;;;1.00;99.90;;;;;;5093264;28;20102;-70
2022/01/11 03:00:22;;;;;;;151.27;31.23;;;1.00;99.90;;;;;;5074868;28;20648;-70
2022/01/11 03:02:48;;;;;;;166.93;33.38;;;1.00;99.90;;;;;;5093237;28;20024;-70
2022/01/11 03:05:14;;;;;;;177.35;35.28;;;1.00;99.90;;;;;;5092843;28;20028;-70
2022/01/11 03:07:41;;;;;;;124.40;30.90;;;1.00;99.90;;;;;;5093156;28;20390;-71
2022/01/11 03:10:25;;;;;;;185.68;36.25;;;1.00;99.90;;;;;;5092776;28;20454;-70
2022/01/11 03:12:50;;;;;;;129.98;31.83;;;1.00;99.90;;;;;;5092853;28;20081;-70
2022/01/11 03:15:16;;;;;;;173.18;33.30;;;1.00;99.90;;;;;;5074518;28;20024;-71
2022/01/11 03:17:42;;;;;;;160.13;33.63;;;1.00;99.90;;;;;;5092904;28;20059;-71
2022/01/11 03:20:08;;;;;;;116.28;30.83;;;1.00;99.90;;;;;;5093068;28;20455;-71
2022/01/11 03:22:34;;;;;;;129.13;31.95;;;1.00;99.90;;;;;;5092735;28;20111;-71
2022/01/11 03:25:01;;;;;;;149.10;32.33;;;1.10;99.90;;;;;;5092588;28;20103;-71
2022/01/11 03:27:27;;;;;;;134.88;30.88;;;1.10;99.90;;;;;;5092782;28;20453;-70
2022/01/11 03:29:52;;;;;;;205.57;36.42;;;1.10;99.90;;;;;;5092451;28;20107;-71
2022/01/11 03:32:19;;;;;;;114.57;31.77;;;1.10;99.90;;;;;;5092654;28;20139;-70
2022/01/11 03:34:46;;;;;;;126.47;31.10;;;1.10;99.90;;;;;;5092496;28;20023;-70
2022/01/11 03:37:16;;;;;;;124.22;31.25;;;1.10;99.90;;;;;;5092446;28;20055;-71
2022/01/11 03:39:41;;;;;;;133.75;32.53;;;1.10;99.90;;;;;;5074855;28;20020;-71
2022/01/11 03:42:07;;;;;;;112.65;30.63;;;1.10;99.90;;;;;;5088636;28;20016;-71
2022/01/11 03:44:33;;;;;;;113.30;31.10;;;1.20;99.90;;;;;;5092139;28;20103;-71
2022/01/11 03:46:59;;;;;;;191.43;36.78;;;1.10;99.90;;;;;;5092435;28;20474;-71
2022/01/11 03:49:25;;;;;;;124.18;31.65;;;1.10;99.90;;;;;;5092155;28;20733;-71
2022/01/11 03:51:51;;;;;;;123.53;31.42;;;1.10;99.90;;;;;;5092233;28;20047;-71
2022/01/11 03:54:24;;;;;;;152.70;34.15;;;1.10;99.90;;;;;;5090657;28;20484;-71
2022/01/11 03:56:50;;;;;;;152.25;33.75;;;1.20;99.90;;;;;;5092260;28;20020;-71
2022/01/11 03:59:16;;;;;;;127.57;33.03;;;1.10;99.90;;;;;;5092106;28;20039;-71
2022/01/11 04:01:41;;;;;;;135.05;36.25;;;1.10;99.90;;;;;;5092172;28;20032;-70
2022/01/11 04:04:09;;;;;;;123.03;33.90;;;1.10;99.90;;;;;;5092043;28;20358;-70
2022/01/11 04:06:35;;;;;;;111.63;32.35;;;1.10;99.90;;;;;;5092061;28;20372;-71
2022/01/11 04:09:02;;;;;;;134.55;33.13;;;1.10;99.90;;;;;;5091689;28;20056;-71
2022/01/11 04:11:27;;;;;;;125.85;33.15;;;1.20;99.90;;;;;;5072518;28;20085;-71
2022/01/11 04:13:53;;;;;;;114.72;32.47;;;1.20;99.90;;;;;;5071562;28;20457;-70
2022/01/11 04:16:18;;;;;;;111.80;31.88;;;1.20;99.90;;;;;;5071898;28;20504;-71
2022/01/11 04:18:44;;;;;;;110.15;30.60;;;1.20;99.90;;;;;;5071653;28;20108;-70
2022/01/11 04:21:10;;;;;;;118.43;31.15;;;1.20;99.90;;;;;;5072070;28;20462;-70
2022/01/11 04:23:36;;;;;;;100.75;29.75;;;1.10;99.90;;;;;;5071426;28;20062;-70
2022/01/11 04:26:02;;;;;;;90.72;28.92;;;1.10;99.90;;;;;;5071443;28;20017;-70
2022/01/11 04:28:28;;;;;;;98.25;29.58;;;1.10;99.90;;;;;;5071572;28;20112;-71
2022/01/11 04:30:59;;;;;;;91.07;27.60;;;1.10;99.90;;;;;;5071595;28;20109;-71
2022/01/11 04:33:29;;;;;;;103.25;28.52;;;1.10;99.90;;;;;;5071419;28;20036;-71
2022/01/11 04:35:55;;;;;;;90.55;28.52;;;1.00;99.90;;;;;;5071578;28;20054;-70
2022/01/11 04:38:22;;;;;;;92.20;27.70;;;;;;;;;;5071036;28;20439;-70
2022/01/11 04:40:49;;;;;;;103.93;29.35;;;;;;;;;;5076663;28;20533;-70
2022/01/11 04:43:15;;;;;;;89.85;27.98;;;;;;;;;;5073110;28;20058;-70
2022/01/11 04:45:41;;;;;;;94.45;27.63;;;;;;;;;;5091647;28;20024;-70
2022/01/11 04:48:07;;;;;;;94.47;28.00;;;;;;;;;;5091329;28;20693;-71
2022/01/11 04:50:33;;;;;;;91.60;28.50;;;;;;;;;;5091412;28;20044;-70
2022/01/11 04:53:00;;;;;;;97.45;29.58;;;;;;;;;;5091501;28;20067;-70
2022/01/11 04:55:27;;;;;;;98.72;28.65;;;;;;;;;;5091271;28;20020;-70
2022/01/11 04:57:53;;;;;;;97.60;28.95;;;;;;;;;;5091619;28;20389;-71
2022/01/11 05:00:20;;;;;;;99.53;30.08;;;;;;;;;;5091460;28;20030;-70
2022/01/11 05:02:49;;;;;;;103.72;30.63;;;;;;;;;;5091431;28;20108;-70
2022/01/11 05:05:18;;;;;;;88.55;27.85;;;;;;;;;;5093338;28;20095;-70
2022/01/11 05:07:45;;;;;;;89.93;27.88;;;;;;;;;;5077094;28;20020;-70
2022/01/11 05:10:11;;;;;;;97.32;29.35;;;;;;;;;;5086516;28;20020;-70
2022/01/11 05:12:38;;;;;;;88.03;27.70;;;;;;;;;;5075005;28;20889;-70
2022/01/11 05:15:06;;;;;;;83.40;28.38;;;;;;;;;;5056714;28;20023;-70
2022/01/11 05:17:32;;;;;;;95.32;29.67;;;;;;;;;;5074959;28;20024;-70
2022/01/11 05:19:58;;;;;;;91.38;29.33;;;;;;;;;;5075110;28;20159;-71
2022/01/11 05:22:24;;;;;;;96.40;28.65;;;;;;;;;;5074874;28;20075;-70
2022/01/11 05:24:53;;;;;;;86.93;26.23;;;;;;;;;;5074503;28;20032;-70
2022/01/11 05:27:19;;;;;;;87.53;27.17;;;;;;;;;;5074779;28;20029;-70
2022/01/11 05:29:45;;;;;;;68.90;24.25;;;;;;;;;;5074584;28;20103;-70
2022/01/11 05:32:11;;;;;;;89.82;27.00;;;;;;;;;;5074464;28;20060;-70
2022/01/11 05:34:37;;;;;;;78.60;25.08;;;;;;;;;;5056348;28;20157;-70
2022/01/11 05:37:03;;;;;;;91.07;28.88;;;;;;;;;;5074541;28;20035;-70
2022/01/11 05:39:29;;;;;;;82.85;25.70;;;;;;;;;;5074209;28;20021;-70
2022/01/11 05:41:55;;;;;;;91.38;28.08;;;;;;;;;;5089235;28;20180;-70
2022/01/11 05:44:22;;;;;;;85.90;28.05;;;;;;;;;;5094603;28;20024;-70
2022/01/11 05:46:48;;;;;;;98.43;28.50;;;;;;;;;;5094893;28;20048;-70
2022/01/11 05:49:15;;;;;;;86.03;28.55;;;;;;;;;;5094207;28;20040;-70
2022/01/11 05:51:41;;;;;;;99.00;29.92;;;;;;;;;;5094703;28;20032;-70
2022/01/11 05:54:07;;;;;;;89.30;30.00;;;;;;;;;;5094307;28;20021;-70
2022/01/11 05:56:33;;;;;;;90.10;28.30;;;;;;;;;;5094607;28;20421;-70
2022/01/11 05:58:59;;;;;;;99.32;29.33;;;;;;;;;;5094128;28;20016;-70
2022/01/11 06:01:25;;;;;;;90.72;29.00;;;;;;;;;;5094020;28;20107;-70
2022/01/11 06:03:51;;;;;;;95.95;29.45;;;;;;;;;;5093961;28;20028;-71
2022/01/11 06:06:17;;;;;;;97.40;29.10;;;;;;;;;;5094433;28;20486;-70
2022/01/11 06:08:43;;;;;;;94.95;28.52;;;;;;;;;;5075950;28;20438;-70
2022/01/11 06:11:11;;;;;;;99.75;28.45;;;;;;;;;;5077120;28;20062;-70
2022/01/11 06:13:37;;;;;;;88.65;27.73;;;;;;;;;;5073651;28;20017;-71
2022/01/11 06:16:03;;;;;;;95.32;28.63;;;;;;;;;;5072638;28;20036;-70
2022/01/11 06:18:29;;;;;;;94.35;27.65;;;;;;;;;;5073598;28;20021;-70
2022/01/11 06:20:55;;;;;;;91.13;28.75;;;;;;;;;;5074066;28;20031;-70
2022/01/11 06:23:22;;;;;;;85.13;27.05;;;;;;;;;;5073592;28;20054;-70
2022/01/11 06:25:48;;;;;;;96.40;28.20;;;;;;;;;;5073560;28;20036;-70
2022/01/11 06:28:14;;;;;;;89.95;26.98;;;;;;;;;;5073527;28;20036;-70
2022/01/11 06:30:40;;;;;;;94.85;28.65;;;;;;;;;;5073541;28;20095;-70
2022/01/11 06:33:06;;;;;;;99.55;29.80;;;;;;;;;;5073477;28;20028;-70
2022/01/11 06:35:32;;;;;;;96.07;28.13;;;;;;;;;;5073370;28;20462;-70
2022/01/11 06:37:58;;;;;;;94.53;29.38;;;;;;;;;;5070696;28;20059;-70
2022/01/11 06:40:24;;;;;;;98.82;28.45;;;;;;;;;;5055275;28;20026;-70
2022/01/11 06:42:53;;;;;;;97.68;28.02;;;;;;;;;;5073435;28;20024;-70
2022/01/11 06:45:21;;;;;;;98.97;29.50;;;;;;;;;;5055099;28;20417;-70
2022/01/11 06:47:51;;;;;;;86.30;27.50;;;;;;;;;;5073157;28;20095;-70
2022/01/11 06:50:18;;;;;;;93.70;29.42;;;;;;;;;;5084006;28;20059;-70
2022/01/11 06:52:44;;;;;;;88.70;28.60;;;;;;;;;;5093467;28;20114;-70
2022/01/11 06:55:10;;;;;;;88.53;28.17;;;;;;;;;;5093168;28;20025;-70
2022/01/11 06:57:37;;;;;;;85.03;26.58;;;;;;;;;;5093440;28;20066;-70
2022/01/11 07:00:05;;;;;;;87.57;27.45;;;;;;;;;;5092995;28;20016;-70
2022/01/11 07:02:31;;;;;;;86.47;28.17;;;;;;;;;;5093415;28;20440;-70
2022/01/11 07:04:57;;;;;;;90.05;27.92;;;;;;;;;;5093092;28;20024;-70
2022/01/11 07:07:23;;;;;;;90.78;27.98;;;;;;;;;;5093073;28;20099;-70
2022/01/11 07:09:49;;;;;;;90.38;29.50;;;;;;;;;;5092806;28;20031;-70
2022/01/11 07:12:15;;;;;;;84.90;26.80;;;;;;;;;;5092923;28;20024;-70
2022/01/11 07:14:41;;;;;;;89.05;28.08;;;;;;;;;;5092645;28;20024;-70
2022/01/11 07:17:07;;;;;;;96.78;29.27;;;;;;;;;;5092915;28;20031;-70
2022/01/11 07:19:34;;;;;;;95.55;29.98;;;;;;;;;;5092591;28;20051;-70
2022/01/11 07:22:00;;;;;;;99.03;31.10;;;;;;;;;;5092993;28;20028;-70
2022/01/11 07:24:27;;;;;;;82.72;28.92;;;;;;;;;;5092540;28;20028;-70
2022/01/11 07:26:53;;;;;;;89.93;28.35;;;;;;;;;;5092670;28;20045;-70
2022/01/11 07:29:19;;;;;;;97.00;29.67;;;;;;;;;;5092092;28;20139;-70
2022/01/11 07:31:45;;;;;;;89.18;30.00;;;;;;;;;;5092535;28;20035;-70
2022/01/11 07:34:11;;;;;;;94.05;29.17;;;;;;;;;;5092438;28;20047;-70
2022/01/11 07:36:37;;;;;;;97.03;29.55;;;;;;;;;;5092633;28;20016;-70
2022/01/11 07:39:04;;;;;;;87.93;29.42;;;;;;;;;;5087298;28;20023;-70
2022/01/11 07:41:30;;;;;;;83.88;28.30;;;;;;;;;;5102987;28;20023;-70
2022/01/11 07:43:57;;;;;;;90.03;29.42;;;;;;;;;;5100889;28;20032;-70
2022/01/11 07:46:24;;;;;;;97.20;30.08;;;;;;;;;;5083500;28;20019;-70
2022/01/11 07:48:50;;;;;;;83.85;29.20;;;;;;;;;;5102670;28;20416;-70
2022/01/11 07:51:16;;;;;;;93.43;29.00;;;;;;;;;;5100646;28;20032;-70
2022/01/11 07:53:43;;;;;;;89.95;29.52;;;;;;;;;;5084115;28;20071;-70
2022/01/11 07:56:09;;;;;;;83.57;28.90;;;;;;;;;;5084064;28;20020;-70
2022/01/11 07:58:35;;;;;;;83.50;27.25;;;;;;;;;;5100727;28;20031;-70
2022/01/11 08:01:01;;;;;;;69.38;25.65;;;;;;;;;;5103480;28;20012;-70
2022/01/11 08:03:27;;;;;;;75.30;26.95;;;;;;;;;;5092057;28;20054;-70
2022/01/11 08:05:53;;;;;;;75.65;26.52;;;;;;;;;;5092019;28;20051;-70
2022/01/11 08:08:19;;;;;;;78.78;25.92;;;;;;;;;;5091736;28;20024;-70
2022/01/11 08:10:45;;;;;;;76.45;26.60;;;;;;;;;;5091596;28;20164;-70
2022/01/11 08:13:11;;;;;;;80.70;27.70;;;;;;;;;;5095614;28;20097;-70
2022/01/11 08:15:38;;;;;;;75.40;26.80;;;;;;;;;;5099781;28;20028;-70
2022/01/11 08:18:05;;;;;;;75.40;25.65;;;;;;;;;;5102662;28;20016;-70
2022/01/11 08:20:31;;;;;;;75.00;24.88;;;;;;;;;;5101602;28;20039;-70
2022/01/11 08:22:57;;;;;;;71.32;25.92;;;;;;;;;;5100944;28;20027;-70
2022/01/11 08:25:26;;;;;;;84.40;26.50;;;;;;;;;;5069179;28;20174;-70
2022/01/11 08:27:52;;;;;;;70.93;25.13;;;;;;;;;;5068745;28;20024;-70
2022/01/11 08:30:18;;;;;;;71.53;26.45;;;;;;;;;;5091072;28;20514;-70
2022/01/11 08:32:45;;;;;;;73.10;26.35;;;;;;;;;;5091246;28;20783;-70
2022/01/11 08:35:11;;;;;;;67.78;24.45;;;;;;;;;;5092545;28;20016;-70
2022/01/11 08:37:37;;;;;;;74.43;27.23;;;;;;;;;;5080373;28;20027;-70
2022/01/11 08:40:04;;;;;;;61.63;23.23;;;;;;;;;;5083996;28;20024;-70
2022/01/11 08:42:30;;;;;;;67.05;23.92;;;;;;;;;;5087821;28;20032;-70
2022/01/11 08:44:57;;;;;;;61.40;23.83;;;;;;;;;;5077006;28;20024;-70
2022/01/11 08:47:25;;;;;;;55.65;23.40;;;;;;;;;;5094788;28;20040;-69
2022/01/11 08:49:51;;;;;;;53.50;23.15;;;;;;;;;;5092646;28;20124;-70
2022/01/11 08:52:17;;;;;;;57.65;24.00;;;;;;;;;;5085752;28;20074;-70
2022/01/11 08:54:44;;;;;;;56.17;23.65;;;;;;;;;;5089038;28;20031;-70
2022/01/11 08:57:10;;;;;;;60.72;23.00;;;;;;;;;;5084785;28;20024;-70
2022/01/11 08:59:36;;;;;;;55.88;22.60;;;;;;;;;;5088120;28;20106;-70
2022/01/11 09:02:04;;;;;;;53.30;22.25;;;;;;;;;;5091135;28;20069;-72
2022/01/11 09:04:30;;;;;;;54.30;23.02;;;;;;;;;;5092391;28;20035;-70
2022/01/11 09:06:57;;;;;;;51.00;20.83;;;;;;;;;;5088703;28;20020;-70
2022/01/11 09:09:28;;;;;;;58.72;23.70;;;;;;;;;;5096924;28;20024;-70
2022/01/11 09:11:54;;;;;;;48.38;21.15;;;;;;;;;;5079325;28;20047;-70
2022/01/11 09:14:20;;;;;;;53.53;21.08;;;;;;;;;;5097667;28;20485;-70
2022/01/11 09:16:46;;;;;;;53.65;22.85;;;;;;;;;;5097897;28;20474;-70
2022/01/11 09:19:13;;;;;;;47.95;21.45;;;;;;;;;;5079321;28;20030;-70
2022/01/11 09:21:40;;;;;;;51.50;20.58;;;;;;;;;;5098096;28;20548;-70
2022/01/11 09:24:06;;;;;;;50.33;22.77;;;;;;;;;;5097661;28;20032;-70
2022/01/11 09:26:32;;;;;;;47.53;20.40;;;;;;;;;;5097927;28;20028;-70
2022/01/11 09:28:59;;;;;;;43.53;19.95;;;;;;;;;;5100508;28;20055;-70
2022/01/11 09:31:25;;;;;;;49.13;21.70;;;;;;;;;;5108699;28;20465;-70
2022/01/11 09:33:51;;;;;;;45.75;20.52;;;;;;;;;;5117518;28;20025;-71
2022/01/11 09:36:18;;;;;;;45.35;20.92;;;;;;;;;;5118237;28;20377;-70
2022/01/11 09:38:44;;;;;;;46.25;20.00;;;;;;;;;;5108742;28;20347;-70
2022/01/11 09:41:10;;;;;;;43.22;20.02;;;;;;;;;;5097676;28;20028;-70
2022/01/11 09:43:36;;;;;;;42.00;19.63;;;;;;;;;;5097624;28;20039;-70
2022/01/11 09:46:02;;;;;;;51.78;21.42;;;;;;;;;;5100495;28;20065;-70
2022/01/11 09:48:32;;;;;;;40.83;19.80;;;;;;;;;;5112091;28;20027;-69
2022/01/11 09:51:01;;;;;;;46.38;21.83;;;;;;;;;;5116681;28;20048;-70
2022/01/11 09:53:27;;;;;;;43.42;21.40;;;;;;;;;;5114297;28;20055;-70
2022/01/11 09:55:53;;;;;;;46.30;20.25;;;;;;;;;;5114453;28;20028;-70
2022/01/11 09:58:19;;;;;;;42.05;20.05;;;;;;;;;;5105756;28;20036;-70
2022/01/11 10:00:45;;;;;;;44.92;22.00;;;;;;;;;;5103138;28;20025;-70
2022/01/11 10:03:13;;;;;;;46.45;21.58;;;;;;;;;;5107656;28;20031;-70
2022/01/11 10:05:40;;;;;;;43.08;20.83;;;;;;;;;;5103785;28;20073;-70
2022/01/11 10:08:19;;;;;;;43.85;20.42;;;;;;;;;;5094252;28;20028;-70
2022/01/11 10:10:46;;;;;;;44.90;21.17;;;;;;;;;;5093938;28;20031;-69
2022/01/11 10:13:28;;;;;;;44.83;20.75;;;;;;;;;;5075720;28;20024;-71
2022/01/11 10:15:54;;;;;;;41.05;19.13;;;;;;;;;;5093911;28;20107;-71
2022/01/11 10:18:34;;;;;;;44.08;20.70;;;;;;;;;;5093934;28;20338;-70
2022/01/11 10:21:00;;;;;;;43.88;21.05;;;;;;;;;;5088832;28;20051;-72
2022/01/11 10:23:32;;;;;;;46.33;20.23;;;;;;;;;;5084368;28;20446;-70
2022/01/11 10:25:58;;;;;;;43.30;20.08;;;;;;;;;;5073641;28;20601;-69
2022/01/11 10:28:42;;;;;;;44.35;20.08;;;;;;;;;;5080595;28;20028;-72
2022/01/11 10:31:08;;;;;;;40.28;19.95;;;;;;;;;;5096506;28;20031;-68
2022/01/11 10:33:34;;;;;;;43.45;20.23;;;;;;;;;;5099739;28;20055;-69
2022/01/11 10:36:00;;;;;;;40.03;19.33;;;;;;;;;;5092849;28;20028;-69
2022/01/11 10:38:28;;;;;;;41.50;20.20;;;;;;;;;;5093374;28;20024;-70
2022/01/11 10:40:55;;;;;;;39.50;18.52;;;;;;;;;;5081819;28;20490;-70
2022/01/11 10:43:22;;;;;;;38.30;19.45;;;;;;;;;;5073104;28;20490;-70
2022/01/11 10:45:50;;;;;;;42.08;18.83;;;;;;;;;;5055072;28;20218;-72
2022/01/11 10:48:17;;;;;;;37.63;18.25;;;;;;;;;;5072210;28;20020;-70
2022/01/11 10:50:55;;;;;;;37.17;18.70;;;;;;;;;;5072316;28;20047;-71
2022/01/11 10:53:23;;;;;;;39.15;19.17;;;;;;;;;;5072834;28;20498;-71
2022/01/11 10:55:50;;;;;;;40.40;18.30;;;;;;;;;;5073138;28;20024;-71
2022/01/11 10:58:16;;;;;;;36.20;18.02;;;;;;;;;;5054824;28;20058;-74
2022/01/11 11:00:47;;;;;;;39.03;19.67;;;;;;;;;;5073076;28;20421;-71
2022/01/11 11:03:17;;;;;;;32.08;17.73;;;;;;;;;;5072188;28;20513;-72
2022/01/11 11:05:59;;;;;;;34.28;17.63;;;;;;;;;;5078470;28;20027;-72
2022/01/11 11:08:25;;;;;;;;;;;;;;;;;;5093377;28;20032;-72
2022/01/11 11:10:59;;;;;;;40.03;17.77;;;;;;;;;;5092938;28;19953;-72
2022/01/11 11:13:25;;;;;;;29.70;16.15;;;;;;;;;;5098072;28;20557;-72
2022/01/11 11:15:51;;;;;;;34.80;16.38;;;;;;;;;;5104300;28;20024;-72
2022/01/11 11:18:41;;;;;;;34.22;17.23;;;;;;;;;;5105099;28;20016;-72
2022/01/11 11:21:18;;;;;;;32.40;16.35;;;;;;;;;;5087024;28;20036;-72
2022/01/11 11:23:44;;;;;;;33.25;17.35;;;;;;;;;;5100206;28;20030;-72
2022/01/11 11:26:10;;;;;;;31.20;16.13;;;;;;;;;;5100236;28;20020;-72
2022/01/11 11:28:38;;;;;;;32.65;16.25;;;;;;;;;;5099626;28;20082;-72
2022/01/11 11:31:04;;;;;;;33.97;17.10;;;;;;;;;;5099726;28;20021;-71
2022/01/11 11:33:30;;;;;;;30.42;16.80;;;;;;;;;;5099753;28;20409;-72
2022/01/11 11:35:58;;;;;;;32.45;17.55;;;;;;;;;;5102098;28;20023;-71
2022/01/11 11:38:29;;;;;;;29.13;15.52;;;;;;;;;;5103604;28;20062;-74
2022/01/11 11:40:56;;;;;;;31.10;15.60;;;;;;;;;;5081108;28;20473;-74
2022/01/11 11:43:22;;;;;;;27.13;15.07;;;;;;;;;;5095380;28;20039;-74
2022/01/11 11:45:49;;;;;;;27.35;14.77;;;;;;;;;;5095125;28;20419;-73
2022/01/11 11:48:18;;;;;;;28.95;14.73;;;;;;;;;;5100938;28;20418;-72
2022/01/11 11:50:55;;;;;;;33.40;15.85;;;;;;;;;;5099883;28;20040;-72
2022/01/11 11:53:21;;;;;;;26.48;13.65;;;;;;;;;;5100289;28;20031;-71
2022/01/11 11:55:47;;;;;;;30.63;14.88;;;;;;;;;;5094883;28;20016;-70
2022/01/11 11:58:18;;;;;;;26.33;13.95;;;;;;;;;;5091930;28;20081;-71
2022/01/11 12:00:45;;;;;;;26.65;14.93;;;;;;;;;;5092244;28;20107;-70
2022/01/11 12:03:18;;;;;;;25.58;13.77;;;;;;;;;;5073673;28;20486;-74
2022/01/11 12:05:47;;;;;;;28.17;14.07;;;;;;;;;;5089774;28;20549;-72
2022/01/11 12:08:31;;;;;;;29.15;13.38;;;;;;;;;;5082051;28;20056;-72
2022/01/11 12:11:00;;;;;;;25.58;13.60;;;;;;;;;;5099971;28;20024;-72
2022/01/11 12:13:41;;;;;;;26.08;12.77;;;;;;;;;;5097741;28;20059;-72
2022/01/11 12:16:26;;;;;;;26.45;13.43;;;;;;;;;;5101856;28;20020;-72
2022/01/11 12:18:54;;;;;;;24.63;13.07;;;;;;;;;;5097804;28;20077;-72
2022/01/11 12:21:22;;;;;;;21.83;12.80;;;;;;;;;;5083171;28;20054;-72
2022/01/11 12:23:48;;;;;;;27.60;15.15;;;;;;;;;;5094462;28;20115;-73
2022/01/11 12:26:16;;;;;;;37.90;20.80;;;;;;;;;;5091787;28;20032;-71
2022/01/11 12:29:02;;;;;;;30.63;15.68;;;;;;;;;;5073432;28;20025;-71
2022/01/11 12:31:30;;;;;;;25.65;12.98;;;;;;;;;;5075544;28;20024;-72
2022/01/11 12:33:57;;;;;;;23.38;13.13;;;;;;;;;;5090223;28;20031;-73
2022/01/11 12:36:23;;;;;;;25.77;14.52;;;;;;;;;;5091678;28;20024;-72
2022/01/11 12:39:05;;;;;;;26.38;15.10;;;;;;;;;;5091450;28;20027;-72
2022/01/11 12:41:37;;;;;;;29.20;15.20;;;;;;;;;;5091307;28;20500;-72
2022/01/11 12:45:35;;;;;;;48.35;27.58;;;;;;;;;;5091255;28;20024;-72
2022/01/11 12:47:19;;;;;;;37.88;19.70;;;;;;;;;;5091592;28;20386;-72
2022/01/11 12:50:03;;;;;;;31.20;15.18;;;;;;;;;;5091377;28;20127;-72
2022/01/11 12:52:29;;;;;;;26.25;14.18;;;;;;;;;;5091490;28;20032;-72
2022/01/11 12:54:58;;;;;;;25.65;13.70;;;;;;;;;;5091355;28;20081;-72
2022/01/11 12:57:28;;;;;;;25.60;13.18;;;;;;;;;;5072386;28;20474;-72
2022/01/11 12:59:56;;;;;;;22.42;13.35;;;;;;;;;;5091190;28;20069;-72
2022/01/11 13:02:24;;;;;;;23.10;13.50;;;;;;;;;;5083892;28;20078;-71
2022/01/11 13:04:51;;;;;;;25.30;13.65;;;;;;;;;;5092455;28;20556;-71
2022/01/11 13:07:28;;;;;;;24.77;12.77;;;;;;;;;;5091102;28;20031;-72
2022/01/11 13:09:58;;;;;;;26.05;12.27;;;;;;;;;;5091273;28;20386;-72
2022/01/11 13:12:26;;;;;;;27.25;13.65;;;;;;;;;;5091087;28;20032;-73
2022/01/11 13:15:07;;;;;;;25.17;11.85;;;;;;;;;;5091447;28;20454;-74
2022/01/11 13:17:46;;;;;;;24.85;12.63;;;;;;;;;;5091235;28;20020;-73
2022/01/11 13:20:13;;;;;;;27.20;13.38;;;;;;;;;;5091331;28;20089;-74
2022/01/11 13:23:15;;;;;;;27.92;14.32;;;;;;;;;;5082719;28;20109;-74
2022/01/11 13:25:44;;;;;;;28.38;15.20;;;;;;;;;;5092229;28;20099;-74
2022/01/11 13:28:11;;;;;;;32.80;16.20;;;;;;;;;;5096673;28;20028;-74
2022/01/11 13:30:42;;;;;;;23.35;13.25;;;;;;;;;;5110575;28;20411;-74
2022/01/11 13:33:10;;;;;;;27.80;13.65;;;;;;;;;;5114901;28;20392;-73
2022/01/11 13:35:37;;;;;;;30.33;15.73;;;;;;;;;;5110195;28;20019;-74
2022/01/11 13:38:10;;;;;;;26.13;14.18;;;;;;;;;;5115243;28;20364;-71
2022/01/11 13:40:37;;;;;;;24.77;13.95;;;;;;;;;;5114192;28;20095;-72
2022/01/11 13:43:08;;;;;;;16.90;10.10;;;;;;;;;;5115066;28;20055;-72
2022/01/11 13:45:38;;;;;;;21.52;12.50;;;;;;;;;;5115042;28;20422;-72